createdAt,value
2019-04-27T00:01:53.837Z,10.30
2019-04-27T00:04:30.278Z,10.20
2019-04-27T00:07:02.874Z,10.10
2019-04-27T00:09:37.369Z,10.10
2019-04-27T00:12:07.128Z,10.10
2019-04-27T00:14:35.670Z,10.10
2019-04-27T00:17:43.431Z,10.20
2019-04-27T00:20:14.189Z,10.20
2019-04-27T00:22:47.644Z,10.30
2019-04-27T00:25:16.418Z,10.10
2019-04-27T00:27:44.447Z,10.00
2019-04-27T00:30:13.928Z,10.00
2019-04-27T00:32:41.296Z,9.90
2019-04-27T00:35:13.647Z,9.90
2019-04-27T00:37:52.942Z,10.00
2019-04-27T00:40:23.840Z,10.00
2019-04-27T00:42:50.733Z,9.90
2019-04-27T00:45:18.591Z,9.90
2019-04-27T00:47:56.428Z,9.80
2019-04-27T00:50:18.554Z,9.80
2019-04-27T00:52:45.504Z,9.70
2019-04-27T00:55:17.622Z,9.70
2019-04-27T01:00:43.973Z,9.70
2019-04-27T01:03:18.397Z,9.70
2019-04-27T01:05:45.657Z,9.70
2019-04-27T01:08:13.890Z,9.60
2019-04-27T01:10:43.531Z,9.70
2019-04-27T01:13:11.052Z,9.90
2019-04-27T01:15:43.036Z,10.00
2019-04-27T01:18:14.682Z,10.00
2019-04-27T01:20:41.990Z,9.90
2019-04-27T01:23:10.606Z,10.10
2019-04-27T01:26:03.105Z,10.10
2019-04-27T01:28:39.340Z,10.20
2019-04-27T01:31:09.372Z,10.20
2019-04-27T01:37:05.773Z,10.00
2019-04-27T01:39:33.154Z,9.90
2019-04-27T01:42:03.964Z,9.90
2019-04-27T01:44:31.790Z,9.80
2019-04-27T01:46:59.921Z,9.80
2019-04-27T01:49:29.386Z,9.80
2019-04-27T01:51:56.625Z,9.80
2019-04-27T01:54:29.079Z,9.90
2019-04-27T01:56:56.324Z,9.90
2019-04-27T01:59:26.201Z,9.90
2019-04-27T02:02:19.149Z,9.80
2019-04-27T02:05:12.765Z,9.90
2019-04-27T02:07:41.210Z,9.90
2019-04-27T02:10:11.305Z,10.00
2019-04-27T02:12:39.749Z,9.90
2019-04-27T02:15:10.700Z,10.00
2019-04-27T02:17:38.665Z,10.10
2019-04-27T02:20:09.754Z,10.20
2019-04-27T02:22:38.376Z,10.20
2019-04-27T02:25:09.048Z,10.30
2019-04-27T02:27:38.919Z,10.20
2019-04-27T02:30:41.874Z,10.20
2019-04-27T02:33:30.807Z,10.30
2019-04-27T02:35:59.861Z,10.30
2019-04-27T02:38:31.702Z,10.20
2019-04-27T02:41:01.154Z,10.10
2019-04-27T02:43:40.101Z,10.10
2019-04-27T02:46:13.402Z,10.00
2019-04-27T02:48:55.670Z,10.10
2019-04-27T02:51:12.838Z,10.10
2019-04-27T02:53:52.465Z,10.00
2019-04-27T02:56:20.319Z,10.00
2019-04-27T02:58:59.150Z,10.10
2019-04-27T03:01:30.665Z,10.10
2019-04-27T03:04:00.339Z,10.10
2019-04-27T03:06:26.969Z,10.00
2019-04-27T03:08:54.599Z,10.00
2019-04-27T03:11:23.551Z,9.90
2019-04-27T03:14:36.320Z,9.90
2019-04-27T03:17:13.552Z,9.90
2019-04-27T03:20:14.481Z,9.90
2019-04-27T03:22:49.503Z,9.90
2019-04-27T03:25:36.765Z,9.90
2019-04-27T03:28:10.501Z,9.80
2019-04-27T03:31:02.616Z,9.70
2019-04-27T03:33:32.004Z,9.70
2019-04-27T03:36:02.047Z,9.80
2019-04-27T03:38:36.159Z,9.80
2019-04-27T03:41:03.357Z,9.90
2019-04-27T03:43:30.650Z,9.70
2019-04-27T03:46:00.466Z,9.70
2019-04-27T03:48:29.378Z,9.60
2019-04-27T03:51:24.926Z,9.70
2019-04-27T03:54:05.890Z,9.70
2019-04-27T03:56:39.860Z,9.80
2019-04-27T03:59:10.301Z,9.80
2019-04-27T04:01:39.959Z,9.80
2019-04-27T04:04:06.987Z,9.70
2019-04-27T04:06:39.618Z,9.70
2019-04-27T04:09:06.830Z,9.70
2019-04-27T04:11:42.873Z,9.70
2019-04-27T04:14:13.682Z,9.50
2019-04-27T04:16:49.782Z,9.40
2019-04-27T04:19:22.004Z,9.40
2019-04-27T04:21:50.410Z,9.40
2019-04-27T04:24:22.010Z,9.40
2019-04-27T04:26:50.274Z,9.40
2019-04-27T04:29:20.395Z,9.50
2019-04-27T04:31:50.390Z,9.50
2019-04-27T04:34:19.562Z,9.30
2019-04-27T04:36:46.522Z,9.10
2019-04-27T04:39:13.905Z,9.10
2019-04-27T04:42:05.841Z,9.10
2019-04-27T04:45:01.640Z,9.20
2019-04-27T04:47:49.696Z,9.20
2019-04-27T04:50:17.081Z,9.30
2019-04-27T04:52:45.722Z,9.40
2019-04-27T04:55:12.793Z,9.40
2019-04-27T04:57:43.105Z,9.30
2019-04-27T05:00:11.654Z,9.30
2019-04-27T05:02:39.632Z,9.30
2019-04-27T05:05:09.351Z,9.30
2019-04-27T05:07:58.792Z,9.30
2019-04-27T05:10:28.877Z,9.30
2019-04-27T05:12:59.068Z,9.40
2019-04-27T05:15:29.214Z,9.50
2019-04-27T05:17:56.465Z,9.50
2019-04-27T05:20:48.573Z,9.60
2019-04-27T05:23:15.800Z,9.70
2019-04-27T05:25:42.717Z,9.70
2019-04-27T05:28:10.266Z,9.70
2019-04-27T05:30:38.913Z,9.90
2019-04-27T05:33:09.479Z,9.80
2019-04-27T05:35:40.626Z,9.90
2019-04-27T05:38:13.555Z,10.00
2019-04-27T05:40:40.201Z,10.00
2019-04-27T05:43:14.645Z,10.20
2019-04-27T05:46:35.684Z,10.30
2019-04-27T05:49:06.263Z,10.30
2019-04-27T05:51:36.864Z,10.40
2019-04-27T05:54:01.909Z,10.40
2019-04-27T05:56:34.161Z,10.50
2019-04-27T05:59:01.025Z,10.60
2019-04-27T06:01:31.876Z,10.70
2019-04-27T06:03:59.037Z,10.90
2019-04-27T06:06:26.033Z,10.90
2019-04-27T06:08:54.553Z,10.90
2019-04-27T06:11:21.452Z,11.00
2019-04-27T06:13:49.269Z,11.10
2019-04-27T06:16:19.467Z,11.10
2019-04-27T06:18:46.665Z,11.10
2019-04-27T06:21:15.331Z,11.10
2019-04-27T06:23:42.292Z,11.10
2019-04-27T06:26:11.688Z,11.20
2019-04-27T06:28:39.902Z,11.20
2019-04-27T06:31:08.678Z,11.20
2019-04-27T06:33:36.835Z,11.20
2019-04-27T06:36:04.055Z,11.30
2019-04-27T06:38:31.104Z,11.30
2019-04-27T06:40:59.357Z,11.50
2019-04-27T06:43:29.272Z,11.60
2019-04-27T06:45:58.784Z,11.70
2019-04-27T06:48:26.131Z,11.70
2019-04-27T06:51:02.668Z,11.80
2019-04-27T06:53:25.268Z,11.80
2019-04-27T06:55:52.250Z,11.80
2019-04-27T06:58:20.230Z,11.90
2019-04-27T07:00:47.209Z,12.00
2019-04-27T07:03:16.056Z,12.10
2019-04-27T07:05:43.902Z,12.00
2019-04-27T07:08:10.973Z,12.00
2019-04-27T07:10:41.119Z,11.90
2019-04-27T07:13:09.629Z,11.90
2019-04-27T07:15:41.154Z,11.90
2019-04-27T07:18:09.599Z,11.90
2019-04-27T07:20:42.110Z,12.10
2019-04-27T07:23:09.548Z,12.10
2019-04-27T07:25:38.779Z,12.00
2019-04-27T07:28:06.190Z,12.00
2019-04-27T07:30:33.058Z,12.00
2019-04-27T07:33:05.137Z,12.00
2019-04-27T07:35:32.209Z,11.90
2019-04-27T07:38:02.899Z,11.90
2019-04-27T07:40:30.436Z,11.90
2019-04-27T07:43:04.813Z,11.80
2019-04-27T07:45:35.089Z,11.80
2019-04-27T07:48:04.764Z,11.80
2019-04-27T07:50:32.307Z,11.70
2019-04-27T07:52:59.195Z,11.80
2019-04-27T07:55:28.759Z,11.60
2019-04-27T07:57:55.920Z,11.60
2019-04-27T08:00:28.983Z,11.50
2019-04-27T08:02:56.524Z,11.50
2019-04-27T08:05:29.161Z,11.40
2019-04-27T08:07:56.249Z,11.40
2019-04-27T08:10:28.858Z,11.30
2019-04-27T08:12:56.477Z,11.30
2019-04-27T08:15:27.007Z,11.30
2019-04-27T08:17:54.330Z,11.40
2019-04-27T08:20:21.780Z,11.40
2019-04-27T08:23:09.870Z,11.50
2019-04-27T08:25:49.634Z,11.60
2019-04-27T08:28:48.844Z,11.70
2019-04-27T08:31:28.766Z,11.90
2019-04-27T08:33:56.076Z,12.00
2019-04-27T08:36:23.065Z,12.00
2019-04-27T08:38:50.701Z,12.00
2019-04-27T08:41:21.030Z,12.00
2019-04-27T08:43:51.498Z,12.00
2019-04-27T08:46:18.778Z,11.90
2019-04-27T08:48:51.556Z,11.90
2019-04-27T08:51:19.662Z,12.00
2019-04-27T08:53:52.752Z,12.20
2019-04-27T08:56:20.044Z,12.20
2019-04-27T08:58:49.765Z,12.20
2019-04-27T09:01:20.801Z,12.10
2019-04-27T09:03:51.925Z,12.00
2019-04-27T09:06:19.056Z,12.00
2019-04-27T09:08:59.325Z,12.10
2019-04-27T09:11:42.509Z,12.30
2019-04-27T09:14:47.003Z,12.50
2019-04-27T09:17:19.730Z,12.90
2019-04-27T09:19:57.225Z,13.20
2019-04-27T09:22:24.506Z,13.30
2019-04-27T09:24:56.300Z,13.50
2019-04-27T09:27:23.196Z,13.50
2019-04-27T09:29:50.269Z,13.60
2019-04-27T09:32:20.818Z,13.40
2019-04-27T09:34:47.811Z,13.30
2019-04-27T09:37:16.619Z,13.20
2019-04-27T09:39:43.639Z,13.20
2019-04-27T09:42:10.667Z,13.30
2019-04-27T09:44:39.613Z,13.30
2019-04-27T09:47:07.428Z,13.20
2019-04-27T09:49:41.182Z,13.20
2019-04-27T09:52:08.096Z,13.00
2019-04-27T09:54:41.933Z,13.00
2019-04-27T09:57:09.064Z,12.90
2019-04-27T09:59:39.910Z,12.90
2019-04-27T10:02:08.649Z,12.90
2019-04-27T10:04:41.026Z,13.00
2019-04-27T10:07:09.008Z,13.10
2019-04-27T10:09:39.696Z,13.10
2019-04-27T10:12:08.874Z,13.00
2019-04-27T10:14:38.606Z,13.00
2019-04-27T10:17:09.084Z,13.00
2019-04-27T10:19:40.893Z,13.00
2019-04-27T10:22:08.351Z,12.90
2019-04-27T10:24:35.936Z,12.90
2019-04-27T10:27:05.526Z,12.70
2019-04-27T10:29:32.800Z,12.70
2019-04-27T10:32:03.310Z,12.80
2019-04-27T10:34:30.336Z,12.80
2019-04-27T10:37:00.871Z,12.90
2019-04-27T10:39:32.900Z,12.80
2019-04-27T10:42:04.235Z,12.90
2019-04-27T10:44:31.440Z,13.10
2019-04-27T10:47:01.545Z,13.10
2019-04-27T10:49:28.905Z,13.20
2019-04-27T10:51:55.985Z,13.40
2019-04-27T10:54:25.288Z,13.40
2019-04-27T10:56:52.497Z,13.40
2019-04-27T10:59:21.418Z,13.50
2019-04-27T11:01:50.584Z,13.50
2019-04-27T11:04:36.801Z,13.30
2019-04-27T11:07:11.340Z,13.40
2019-04-27T11:09:39.660Z,13.40
2019-04-27T11:12:07.067Z,13.40
2019-04-27T11:14:34.157Z,13.50
2019-04-27T11:17:06.190Z,13.40
2019-04-27T11:19:33.589Z,13.10
2019-04-27T11:22:00.665Z,13.00
2019-04-27T11:24:28.274Z,13.00
2019-04-27T11:26:56.722Z,13.00
2019-04-27T11:29:25.650Z,12.90
2019-04-27T11:31:52.902Z,12.70
2019-04-27T11:34:21.908Z,12.60
2019-04-27T11:36:58.853Z,12.60
2019-04-27T11:39:27.000Z,12.60
2019-04-27T11:41:54.011Z,12.70
2019-04-27T11:44:20.953Z,12.80
2019-04-27T11:46:48.370Z,12.70
2019-04-27T11:49:15.677Z,12.70
2019-04-27T11:52:02.577Z,12.80
2019-04-27T11:54:29.548Z,12.90
2019-04-27T11:56:57.145Z,12.90
2019-04-27T11:59:24.022Z,13.00
2019-04-27T12:01:51.601Z,13.10
2019-04-27T12:04:18.537Z,13.10
2019-04-27T12:06:46.324Z,13.10
2019-04-27T12:09:13.945Z,13.10
2019-04-27T12:11:40.943Z,13.30
2019-04-27T12:14:07.991Z,13.50
2019-04-27T12:16:36.036Z,13.50
2019-04-27T12:19:03.465Z,13.50
2019-04-27T12:21:30.368Z,13.40
2019-04-27T12:23:57.305Z,13.60
2019-04-27T12:26:36.313Z,13.60
2019-04-27T12:29:06.241Z,13.60
2019-04-27T12:31:36.456Z,13.60
2019-04-27T12:34:03.724Z,13.50
2019-04-27T12:36:30.733Z,13.40
2019-04-27T12:38:57.652Z,13.40
2019-04-27T12:41:25.085Z,13.30
2019-04-27T12:43:52.124Z,13.30
2019-04-27T12:46:19.696Z,13.30
2019-04-27T12:48:46.641Z,13.40
2019-04-27T12:51:14.004Z,13.30
2019-04-27T12:53:52.258Z,13.30
2019-04-27T12:56:39.601Z,13.20
2019-04-27T12:59:14.092Z,13.30
2019-04-27T13:01:41.116Z,13.30
2019-04-27T13:04:08.380Z,13.10
2019-04-27T13:06:35.833Z,13.00
2019-04-27T13:09:07.121Z,12.90
2019-04-27T13:11:34.408Z,12.60
2019-04-27T13:14:01.409Z,12.50
2019-04-27T13:16:30.422Z,12.40
2019-04-27T13:18:57.512Z,12.00
2019-04-27T13:21:26.261Z,11.60
2019-04-27T13:24:02.087Z,11.10
2019-04-27T13:26:23.764Z,10.60
2019-04-27T13:28:50.733Z,10.40
2019-04-27T13:31:18.234Z,10.30
2019-04-27T13:33:46.538Z,10.20
2019-04-27T13:36:15.023Z,10.20
2019-04-27T13:38:43.666Z,10.30
2019-04-27T13:41:11.292Z,10.30
2019-04-27T13:43:38.557Z,10.20
2019-04-27T13:46:15.740Z,10.20
2019-04-27T13:49:00.992Z,10.10
2019-04-27T13:51:37.004Z,10.20
2019-04-27T13:54:14.433Z,10.20
2019-04-27T13:56:33.183Z,10.30
2019-04-27T13:59:01.158Z,10.50
2019-04-27T14:01:28.579Z,10.70
2019-04-27T14:03:55.805Z,10.80
2019-04-27T14:06:22.913Z,10.80
2019-04-27T14:08:50.548Z,10.80
2019-04-27T14:11:18.398Z,10.80
2019-04-27T14:13:45.973Z,10.80
2019-04-27T14:16:12.864Z,10.80
2019-04-27T14:18:40.427Z,10.80
2019-04-27T14:21:09.316Z,10.80
2019-04-27T14:23:38.417Z,10.70
2019-04-27T14:26:05.495Z,10.80
2019-04-27T14:28:32.496Z,10.80
2019-04-27T14:30:59.726Z,10.90
2019-04-27T14:33:28.303Z,10.90
2019-04-27T14:35:55.471Z,10.90
2019-04-27T14:38:35.530Z,10.90
2019-04-27T14:41:02.541Z,10.90
2019-04-27T14:43:29.904Z,10.80
2019-04-27T14:45:58.322Z,11.00
2019-04-27T14:48:26.798Z,11.00
2019-04-27T14:50:53.666Z,11.10
2019-04-27T14:53:20.645Z,11.30
2019-04-27T14:55:49.006Z,11.50
2019-04-27T14:58:16.081Z,11.70
2019-04-27T15:00:43.277Z,11.90
2019-04-27T15:03:10.273Z,12.10
2019-04-27T15:05:37.538Z,12.20
2019-04-27T15:08:08.291Z,12.30
2019-04-27T15:10:36.100Z,12.40
2019-04-27T15:13:06.486Z,12.50
2019-04-27T15:15:33.607Z,12.40
2019-04-27T15:18:04.368Z,12.30
2019-04-27T15:20:35.756Z,12.50
2019-04-27T15:23:04.520Z,12.70
2019-04-27T15:25:35.090Z,12.80
2019-04-27T15:28:03.373Z,12.70
2019-04-27T15:31:00.970Z,12.60
2019-04-27T15:33:51.416Z,12.50
2019-04-27T15:36:25.928Z,12.40
2019-04-27T15:38:54.425Z,12.30
2019-04-27T15:41:31.546Z,12.30
2019-04-27T15:44:05.960Z,12.40
2019-04-27T15:46:33.668Z,12.60
2019-04-27T15:48:58.952Z,12.60
2019-04-27T15:51:25.980Z,12.60
2019-04-27T15:53:54.035Z,12.60
2019-04-27T15:56:21.881Z,12.50
2019-04-27T15:58:49.077Z,12.30
2019-04-27T16:01:17.860Z,12.30
2019-04-27T16:03:45.013Z,12.20
2019-04-27T16:06:12.247Z,12.10
2019-04-27T16:08:45.273Z,12.10
2019-04-27T16:11:09.967Z,12.10
2019-04-27T16:13:38.761Z,12.10
2019-04-27T16:16:05.874Z,12.10
2019-04-27T16:18:32.875Z,12.10
2019-04-27T16:21:02.919Z,12.20
2019-04-27T16:23:29.809Z,12.20
2019-04-27T16:26:00.247Z,12.30
2019-04-27T16:28:26.074Z,12.30
2019-04-27T16:30:54.148Z,12.30
2019-04-27T16:33:23.540Z,12.30
2019-04-27T16:35:53.060Z,12.20
2019-04-27T16:38:33.567Z,11.90
2019-04-27T16:40:59.666Z,11.60
2019-04-27T16:43:30.238Z,10.90
2019-04-27T16:45:59.697Z,10.50
2019-04-27T16:48:28.070Z,10.20
2019-04-27T16:50:55.226Z,10.00
2019-04-27T16:53:21.720Z,10.10
2019-04-27T16:55:59.560Z,10.10
2019-04-27T16:58:20.596Z,10.10
2019-04-27T17:00:48.032Z,10.10
2019-04-27T17:03:15.248Z,10.10
2019-04-27T17:05:42.543Z,10.10
2019-04-27T17:08:14.383Z,10.10
2019-04-27T17:10:39.125Z,10.10
2019-04-27T17:13:13.402Z,10.20
2019-04-27T17:15:55.145Z,10.20
2019-04-27T17:18:38.466Z,10.20
2019-04-27T17:21:18.379Z,10.30
2019-04-27T17:23:34.584Z,10.20
2019-04-27T17:26:09.198Z,10.10
2019-04-27T17:28:39.428Z,10.10
2019-04-27T17:31:08.532Z,10.10
2019-04-27T17:33:38.137Z,10.10
2019-04-27T17:36:05.176Z,10.00
2019-04-27T17:38:32.201Z,10.10
2019-04-27T17:40:59.238Z,10.00
2019-04-27T17:43:26.325Z,10.00
2019-04-27T17:45:53.440Z,10.10
2019-04-27T17:48:20.409Z,10.30
2019-04-27T17:50:48.987Z,10.30
2019-04-27T17:53:18.640Z,10.20
2019-04-27T17:55:45.307Z,10.20
2019-04-27T17:58:12.336Z,10.20
2019-04-27T18:00:43.587Z,10.00
2019-04-27T18:03:12.562Z,9.80
2019-04-27T18:05:38.982Z,9.70
2019-04-27T18:08:08.369Z,9.70
2019-04-27T18:10:36.645Z,9.60
2019-04-27T18:13:03.924Z,9.40
2019-04-27T18:15:31.168Z,9.40
2019-04-27T18:18:01.186Z,9.50
2019-04-27T18:20:40.068Z,9.50
2019-04-27T18:23:15.180Z,9.50
2019-04-27T18:25:45.849Z,9.40
2019-04-27T18:28:16.411Z,9.40
2019-04-27T18:31:05.535Z,9.50
2019-04-27T18:33:37.160Z,9.60
2019-04-27T18:36:05.422Z,9.70
2019-04-27T18:38:35.552Z,9.60
2019-04-27T18:41:19.632Z,9.60
2019-04-27T18:43:52.149Z,9.50
2019-04-27T18:46:21.983Z,9.50
2019-04-27T18:49:04.168Z,9.50
2019-04-27T18:51:52.571Z,9.50
2019-04-27T18:54:19.804Z,9.50
2019-04-27T18:56:51.706Z,9.60
2019-04-27T18:59:18.710Z,9.60
2019-04-27T19:01:46.156Z,9.60
2019-04-27T19:04:13.023Z,9.70
2019-04-27T19:06:40.448Z,9.70
2019-04-27T19:09:20.129Z,9.70
2019-04-27T19:11:56.335Z,9.80
2019-04-27T19:14:16.602Z,10.00
2019-04-27T19:16:43.513Z,10.00
2019-04-27T19:19:10.393Z,10.00
2019-04-27T19:21:39.123Z,10.10
2019-04-27T19:24:06.269Z,10.20
2019-04-27T19:26:52.378Z,10.10
2019-04-27T19:29:22.929Z,10.10
2019-04-27T19:31:53.984Z,10.10
2019-04-27T19:34:21.964Z,10.10
2019-04-27T19:36:49.906Z,10.20
2019-04-27T19:39:18.106Z,10.00
2019-04-27T19:41:56.754Z,10.00
2019-04-27T19:44:14.545Z,9.90
2019-04-27T19:46:41.433Z,9.80
2019-04-27T19:49:08.862Z,9.60
2019-04-27T19:51:35.833Z,9.50
2019-04-27T19:54:02.924Z,9.50
2019-04-27T19:56:29.790Z,9.40
2019-04-27T19:58:59.070Z,9.30
2019-04-27T20:01:34.462Z,9.30
2019-04-27T20:04:12.627Z,9.30
2019-04-27T20:06:40.001Z,9.30
2019-04-27T20:09:30.581Z,9.20
2019-04-27T20:11:57.697Z,9.10
2019-04-27T20:14:25.008Z,9.20
2019-04-27T20:16:52.106Z,9.20
2019-04-27T20:19:19.172Z,9.20
2019-04-27T20:21:46.216Z,9.30
2019-04-27T20:24:13.173Z,9.30
2019-04-27T20:26:41.596Z,9.30
2019-04-27T20:29:08.592Z,9.30
2019-04-27T20:31:35.652Z,9.30
2019-04-27T20:34:02.928Z,9.40
2019-04-27T20:36:31.353Z,9.30
2019-04-27T20:38:59.092Z,9.20
2019-04-27T20:41:26.208Z,9.30
2019-04-27T20:43:53.117Z,9.20
2019-04-27T20:46:22.378Z,9.10
2019-04-27T20:48:49.069Z,9.20
2019-04-27T20:51:21.210Z,9.10
2019-04-27T20:54:01.677Z,9.20
2019-04-27T20:56:28.928Z,9.20
2019-04-27T20:58:55.828Z,9.30
2019-04-27T21:01:22.685Z,9.30
2019-04-27T21:03:54.137Z,9.30
2019-04-27T21:06:26.888Z,9.20
2019-04-27T21:08:53.805Z,9.20
2019-04-27T21:11:20.987Z,9.10
2019-04-27T21:13:48.014Z,9.10
2019-04-27T21:16:15.044Z,9.00
2019-04-27T21:18:42.193Z,9.00
2019-04-27T21:21:09.304Z,9.00
2019-04-27T21:23:36.629Z,9.00
2019-04-27T21:26:03.724Z,8.90
2019-04-27T21:28:31.201Z,9.00
2019-04-27T21:30:58.086Z,9.00
2019-04-27T21:33:25.385Z,9.10
2019-04-27T21:35:52.382Z,9.10
2019-04-27T21:38:19.384Z,9.10
2019-04-27T21:40:46.432Z,9.20
2019-04-27T21:43:16.172Z,9.10
2019-04-27T21:45:43.068Z,9.20
2019-04-27T21:48:10.993Z,9.10
2019-04-27T21:50:38.348Z,9.10
2019-04-27T21:53:23.964Z,9.10
2019-04-27T21:56:05.261Z,9.00
2019-04-27T21:58:33.296Z,9.00
2019-04-27T22:01:23.700Z,9.00
2019-04-27T22:03:52.703Z,9.10
2019-04-27T22:06:21.329Z,9.20
2019-04-27T22:08:48.477Z,9.10
2019-04-27T22:11:15.369Z,9.10
2019-04-27T22:13:42.498Z,9.10
2019-04-27T22:16:12.721Z,9.20
2019-04-27T22:18:38.425Z,9.20
2019-04-27T22:21:05.409Z,9.20
2019-04-27T22:23:57.317Z,9.20
2019-04-27T22:26:24.584Z,9.20
2019-04-27T22:28:52.175Z,9.30
2019-04-27T22:31:21.032Z,9.20
2019-04-27T22:33:48.055Z,9.30
2019-04-27T22:36:16.377Z,9.30
2019-04-27T22:38:43.421Z,9.30
2019-04-27T22:41:23.764Z,9.40
2019-04-27T22:44:11.570Z,9.30
2019-04-27T22:46:41.124Z,9.40
2019-04-27T22:49:08.193Z,9.20
2019-04-27T22:51:35.686Z,9.10
2019-04-27T22:54:03.900Z,9.10
2019-04-27T22:56:32.100Z,9.10
2019-04-27T22:59:12.484Z,9.10
2019-04-27T23:01:59.121Z,9.10
2019-04-27T23:04:32.575Z,9.10
2019-04-27T23:07:00.636Z,9.00
2019-04-27T23:09:28.857Z,9.00
2019-04-27T23:11:55.925Z,8.90
2019-04-27T23:14:23.149Z,8.90
2019-04-27T23:16:53.038Z,8.80
2019-04-27T23:19:21.011Z,8.80
2019-04-27T23:21:48.096Z,8.80
2019-04-27T23:24:15.085Z,8.80
2019-04-27T23:26:41.972Z,8.70
2019-04-27T23:29:13.686Z,8.60
2019-04-27T23:31:47.812Z,8.70
2019-04-27T23:34:14.969Z,8.60
2019-04-27T23:36:44.156Z,8.50
2019-04-27T23:39:11.858Z,8.40
2019-04-27T23:41:38.968Z,8.30
2019-04-27T23:44:05.896Z,8.30
2019-04-27T23:46:33.521Z,8.30
2019-04-27T23:49:01.536Z,8.30
2019-04-27T23:51:45.436Z,8.30
2019-04-27T23:54:12.320Z,8.30
2019-04-27T23:56:39.413Z,8.30
2019-04-27T23:59:06.525Z,8.30
